Terminal Aerodrome Forecast
Issued by NWS

Home | Current Version | Previous Version | Graphics & Text | Print | Product List | Glossary On
Versions: 1 2 3 4 5 6 7 8 9 10 11 12 13 14 15
000
FTUS43 KLSX 211134
TAFSUS
TAF
KSUS 211134Z 2112/2212 35004KT P6SM VCSH BKN150
     FM211600 04007KT P6SM BKN120
     FM212200 05008KT P6SM VCSH OVC080
     FM220400 05007KT P6SM -SHRA OVC045
     FM221000 05009KT 6SM -SHRA OVC025=

USA.gov is the U.S. government's official web portal to all federal, state and local government web resources and services.